createdAt,value
2019-03-24T00:01:41.074Z,47.31
2019-03-24T00:04:02.704Z,47.11
2019-03-24T00:06:28.715Z,47.24
2019-03-24T00:08:54.787Z,47.29
2019-03-24T00:11:20.779Z,47.03
2019-03-24T00:13:46.774Z,47.27
2019-03-24T00:16:12.771Z,47.11
2019-03-24T00:18:38.768Z,47.16
2019-03-24T00:21:04.768Z,47.19
2019-03-24T00:23:30.766Z,47.12
2019-03-24T00:25:56.759Z,47.04
2019-03-24T00:28:22.758Z,47.12
2019-03-24T00:30:48.752Z,47.18
2019-03-24T00:33:14.758Z,47.21
2019-03-24T00:35:40.756Z,47.17
2019-03-24T00:38:06.780Z,47.05
2019-03-24T00:40:32.782Z,47.10
2019-03-24T00:42:58.767Z,47.15
2019-03-24T00:45:24.878Z,47.11
2019-03-24T00:47:50.870Z,47.13
2019-03-24T00:50:16.866Z,46.96
2019-03-24T00:52:42.865Z,47.13
2019-03-24T00:55:08.864Z,47.13
2019-03-24T00:57:37.363Z,47.07
2019-03-24T01:00:00.865Z,47.17
2019-03-24T01:02:26.870Z,46.98
2019-03-24T01:04:52.863Z,47.14
2019-03-24T01:07:18.862Z,46.87
2019-03-24T01:09:44.859Z,47.01
2019-03-24T01:12:10.860Z,47.06
2019-03-24T01:14:36.857Z,46.93
2019-03-24T01:17:02.855Z,47.11
2019-03-24T01:19:28.854Z,47.14
2019-03-24T01:21:54.984Z,46.93
2019-03-24T01:24:20.974Z,47.10
2019-03-24T01:26:46.973Z,46.85
2019-03-24T01:29:12.970Z,47.04
2019-03-24T01:31:38.968Z,47.04
2019-03-24T01:34:04.971Z,46.88
2019-03-24T01:36:30.984Z,47.03
2019-03-24T01:38:56.994Z,46.78
2019-03-24T01:41:23.012Z,46.76
2019-03-24T01:43:48.978Z,46.75
2019-03-24T01:46:14.986Z,46.80
2019-03-24T01:48:40.984Z,46.76
2019-03-24T01:51:06.985Z,46.88
2019-03-24T01:53:32.985Z,46.68
2019-03-24T01:55:59.005Z,46.79
2019-03-24T01:58:25.049Z,46.98
2019-03-24T02:00:51.042Z,46.65
2019-03-24T02:03:17.050Z,46.65
2019-03-24T02:05:43.086Z,46.87
2019-03-24T02:08:09.044Z,46.89
2019-03-24T02:10:35.042Z,46.96
2019-03-24T02:13:01.045Z,46.70
2019-03-24T02:15:27.079Z,46.82
2019-03-24T02:17:53.220Z,46.70
2019-03-24T02:20:19.220Z,46.80
2019-03-24T02:22:45.238Z,46.86
2019-03-24T02:25:11.230Z,46.71
2019-03-24T02:27:37.227Z,46.65
2019-03-24T02:30:03.235Z,46.69
2019-03-24T02:32:29.239Z,46.86
2019-03-24T02:34:55.222Z,46.75
2019-03-24T02:37:21.217Z,46.82
2019-03-24T02:39:47.251Z,46.60
2019-03-24T02:42:13.243Z,46.60
2019-03-24T02:44:39.244Z,46.78
2019-03-24T02:47:05.239Z,46.58
2019-03-24T02:49:31.237Z,46.65
2019-03-24T02:51:57.247Z,46.53
2019-03-24T02:54:23.234Z,46.80
2019-03-24T02:56:49.235Z,46.68
2019-03-24T02:59:15.231Z,46.58
2019-03-24T03:01:41.237Z,46.66
2019-03-24T03:04:07.263Z,46.60
2019-03-24T03:06:33.261Z,46.84
2019-03-24T03:08:59.255Z,46.58
2019-03-24T03:11:25.260Z,46.77
2019-03-24T03:13:51.274Z,46.72
2019-03-24T03:16:17.266Z,46.81
2019-03-24T03:18:43.288Z,46.77
2019-03-24T03:21:09.282Z,46.69
2019-03-24T03:23:35.277Z,46.60
2019-03-24T03:26:01.280Z,46.80
2019-03-24T03:28:27.280Z,46.51
2019-03-24T03:30:53.275Z,46.58
2019-03-24T03:33:19.272Z,46.61
2019-03-24T03:35:45.268Z,46.46
2019-03-24T03:38:11.271Z,46.41
2019-03-24T03:40:37.268Z,46.49
2019-03-24T03:43:03.269Z,46.68
2019-03-24T03:45:29.329Z,46.69
2019-03-24T03:47:55.330Z,46.60
2019-03-24T03:50:21.319Z,46.66
2019-03-24T03:52:47.315Z,46.58
2019-03-24T03:55:13.314Z,46.65
2019-03-24T03:57:39.340Z,46.76
2019-03-24T04:00:05.348Z,46.57
2019-03-24T04:02:31.355Z,46.50
2019-03-24T04:04:57.353Z,46.49
2019-03-24T04:07:23.348Z,46.48
2019-03-24T04:09:49.352Z,46.51
2019-03-24T04:12:15.350Z,46.60
2019-03-24T04:14:41.474Z,46.42
2019-03-24T04:17:08.179Z,46.42
2019-03-24T04:19:33.462Z,46.63
2019-03-24T04:21:59.454Z,46.47
2019-03-24T04:24:25.472Z,46.58
2019-03-24T04:26:51.477Z,46.49
2019-03-24T04:29:17.462Z,46.60
2019-03-24T04:31:43.481Z,46.51
2019-03-24T04:34:09.465Z,46.42
2019-03-24T04:36:35.467Z,46.66
2019-03-24T04:39:01.463Z,46.55
2019-03-24T04:41:27.471Z,46.50
2019-03-24T04:43:53.475Z,46.46
2019-03-24T04:46:19.468Z,46.67
2019-03-24T04:48:45.471Z,46.59
2019-03-24T04:51:11.471Z,46.55
2019-03-24T04:53:37.470Z,46.35
2019-03-24T04:56:03.468Z,46.47
2019-03-24T04:58:29.469Z,46.45
2019-03-24T05:00:55.513Z,46.35
2019-03-24T05:03:21.537Z,46.52
2019-03-24T05:05:47.532Z,46.66
2019-03-24T05:08:13.528Z,46.56
2019-03-24T05:10:39.527Z,46.58
2019-03-24T05:13:05.524Z,46.55
2019-03-24T05:15:31.532Z,46.52
2019-03-24T05:17:57.526Z,46.57
2019-03-24T05:20:23.524Z,46.36
2019-03-24T05:22:50.107Z,46.36
2019-03-24T05:25:16.139Z,46.54
2019-03-24T05:27:42.138Z,46.57
2019-03-24T05:30:08.130Z,46.27
2019-03-24T05:32:34.132Z,46.45
2019-03-24T05:35:00.285Z,46.29
2019-03-24T05:37:26.122Z,46.47
2019-03-24T05:39:52.125Z,46.56
2019-03-24T05:42:18.128Z,46.57
2019-03-24T05:44:44.127Z,46.61
2019-03-24T05:47:10.158Z,46.70
2019-03-24T05:49:36.155Z,46.65
2019-03-24T05:52:02.153Z,46.65
2019-03-24T05:54:28.159Z,46.66
2019-03-24T05:56:54.157Z,46.52
2019-03-24T05:59:20.157Z,45.58
2019-03-24T06:01:46.147Z,45.74
2019-03-24T06:04:12.143Z,45.96
2019-03-24T06:06:38.134Z,45.91
2019-03-24T06:09:04.164Z,46.15
2019-03-24T06:11:30.161Z,46.20
2019-03-24T06:13:56.156Z,46.20
2019-03-24T06:16:22.160Z,46.34
2019-03-24T06:18:48.151Z,46.47
2019-03-24T06:21:14.240Z,46.35
2019-03-24T06:23:40.236Z,46.60
2019-03-24T06:26:06.273Z,46.69
2019-03-24T06:28:32.271Z,46.75
2019-03-24T06:30:58.269Z,46.83
2019-03-24T06:33:24.268Z,46.93
2019-03-24T06:35:50.268Z,46.97
2019-03-24T06:38:16.268Z,47.01
2019-03-24T06:40:42.268Z,47.06
2019-03-24T06:43:08.455Z,46.99
2019-03-24T06:45:34.452Z,47.05
2019-03-24T06:48:00.471Z,47.06
2019-03-24T06:50:26.462Z,47.13
2019-03-24T06:52:52.543Z,47.13
2019-03-24T06:55:18.540Z,46.83
2019-03-24T06:57:44.537Z,47.21
2019-03-24T07:00:10.603Z,47.16
2019-03-24T07:02:36.622Z,47.38
2019-03-24T07:05:02.619Z,47.59
2019-03-24T07:07:28.614Z,47.61
2019-03-24T07:09:54.642Z,47.65
2019-03-24T07:12:20.642Z,47.70
2019-03-24T07:14:46.657Z,47.72
2019-03-24T07:17:12.687Z,47.45
2019-03-24T07:19:38.682Z,47.60
2019-03-24T07:22:04.729Z,47.39
2019-03-24T07:24:30.680Z,47.50
2019-03-24T07:26:56.691Z,47.51
2019-03-24T07:29:22.685Z,47.69
2019-03-24T07:31:48.679Z,47.86
2019-03-24T07:34:14.675Z,47.68
2019-03-24T07:36:40.680Z,47.50
2019-03-24T07:39:06.679Z,47.41
2019-03-24T07:41:32.672Z,47.30
2019-03-24T07:43:58.675Z,47.40
2019-03-24T07:46:24.671Z,47.43
2019-03-24T07:48:50.704Z,47.45
2019-03-24T07:51:16.745Z,47.50
2019-03-24T07:53:42.792Z,47.52
2019-03-24T07:56:08.784Z,47.80
2019-03-24T07:58:34.798Z,47.81
2019-03-24T08:01:00.776Z,47.85
2019-03-24T08:03:26.789Z,47.91
2019-03-24T08:05:52.800Z,47.90
2019-03-24T08:08:18.800Z,47.75
2019-03-24T08:10:44.801Z,47.72
2019-03-24T08:13:10.815Z,47.77
2019-03-24T08:15:36.823Z,47.91
2019-03-24T08:18:02.816Z,47.95
2019-03-24T08:20:28.844Z,47.85
2019-03-24T08:22:54.846Z,48.14
2019-03-24T08:25:20.860Z,47.84
2019-03-24T08:27:46.860Z,47.98
2019-03-24T08:30:12.860Z,47.97
2019-03-24T08:32:38.942Z,48.25
2019-03-24T08:35:04.939Z,48.29
2019-03-24T08:37:30.942Z,48.16
2019-03-24T08:39:56.931Z,48.26
2019-03-24T08:42:22.933Z,48.38
2019-03-24T08:44:48.933Z,48.33
2019-03-24T08:47:14.964Z,48.39
2019-03-24T08:49:40.962Z,48.38
2019-03-24T08:52:06.957Z,48.43
2019-03-24T08:54:32.956Z,48.46
2019-03-24T08:56:58.957Z,48.42
2019-03-24T08:59:24.954Z,48.45
2019-03-24T09:01:50.958Z,48.43
2019-03-24T09:04:16.961Z,48.27
2019-03-24T09:06:42.959Z,48.29
2019-03-24T09:09:08.986Z,48.25
2019-03-24T09:11:34.979Z,48.30
2019-03-24T09:14:00.983Z,48.23
2019-03-24T09:16:27.005Z,48.08
2019-03-24T09:18:53.194Z,48.18
2019-03-24T09:21:19.671Z,48.09
2019-03-24T09:23:45.026Z,48.03
2019-03-24T09:26:11.454Z,48.00
2019-03-24T09:28:37.451Z,47.89
2019-03-24T09:31:03.453Z,47.89
2019-03-24T09:33:29.452Z,47.89
2019-03-24T09:35:55.451Z,47.93
2019-03-24T09:38:21.456Z,47.87
2019-03-24T09:40:47.447Z,47.91
2019-03-24T09:43:13.458Z,47.90
2019-03-24T09:45:39.456Z,47.90
2019-03-24T09:48:05.450Z,47.85
2019-03-24T09:50:31.540Z,47.79
2019-03-24T09:52:57.452Z,47.78
2019-03-24T09:55:23.449Z,47.77
2019-03-24T09:57:49.447Z,47.74
2019-03-24T10:00:15.451Z,47.72
2019-03-24T10:02:41.486Z,47.68
2019-03-24T10:05:07.507Z,47.67
2019-03-24T10:07:33.512Z,47.66
2019-03-24T10:09:59.502Z,47.65
2019-03-24T10:12:25.501Z,47.62
2019-03-24T10:14:51.496Z,47.54
2019-03-24T10:17:17.500Z,47.50
2019-03-24T10:19:43.500Z,47.48
2019-03-24T10:22:09.494Z,47.46
2019-03-24T10:24:35.493Z,47.48
2019-03-24T10:27:01.501Z,47.54
2019-03-24T10:29:27.507Z,47.52
2019-03-24T10:31:53.511Z,47.55
2019-03-24T10:34:19.513Z,47.52
2019-03-24T10:36:45.508Z,47.52
2019-03-24T10:39:11.511Z,47.52
2019-03-24T10:41:37.511Z,47.58
2019-03-24T10:44:03.515Z,47.59
2019-03-24T10:46:29.513Z,47.57
2019-03-24T10:48:55.512Z,47.52
2019-03-24T10:51:21.529Z,47.52
2019-03-24T10:53:47.536Z,47.54
2019-03-24T10:56:13.548Z,47.75
2019-03-24T10:58:39.557Z,47.93
2019-03-24T11:01:05.587Z,48.14
2019-03-24T11:03:31.582Z,48.03
2019-03-24T11:05:57.574Z,48.11
2019-03-24T11:08:23.582Z,48.22
2019-03-24T11:10:49.581Z,48.38
2019-03-24T11:13:15.582Z,48.50
2019-03-24T11:15:41.577Z,48.27
2019-03-24T11:18:07.617Z,48.54
2019-03-24T11:20:33.639Z,48.59
2019-03-24T11:22:59.635Z,48.60
2019-03-24T11:25:25.639Z,48.53
2019-03-24T11:27:51.637Z,48.62
2019-03-24T11:30:17.715Z,48.38
2019-03-24T11:32:43.729Z,48.72
2019-03-24T11:35:09.729Z,48.47
2019-03-24T11:37:35.726Z,48.39
2019-03-24T11:40:01.808Z,48.55
2019-03-24T11:42:27.799Z,48.43
2019-03-24T11:44:53.790Z,48.49
2019-03-24T11:47:26.451Z,48.57
2019-03-24T11:49:47.253Z,48.70
2019-03-24T11:52:11.944Z,48.71
2019-03-24T11:54:37.958Z,48.70
2019-03-24T11:57:03.962Z,48.58
2019-03-24T11:59:29.955Z,48.64
2019-03-24T12:01:55.994Z,48.66
2019-03-24T12:04:22.001Z,48.57
2019-03-24T12:06:48.179Z,48.46
2019-03-24T12:09:14.376Z,48.62
2019-03-24T12:11:40.379Z,48.61
2019-03-24T12:14:06.384Z,48.70
2019-03-24T12:16:32.379Z,48.76
2019-03-24T12:18:58.387Z,48.89
2019-03-24T12:21:24.396Z,48.68
2019-03-24T12:23:50.393Z,48.27
2019-03-24T12:26:16.402Z,48.41
2019-03-24T12:28:42.401Z,48.64
2019-03-24T12:31:08.418Z,48.64
2019-03-24T12:33:34.416Z,48.67
2019-03-24T12:36:00.446Z,48.52
2019-03-24T12:38:26.447Z,48.68
2019-03-24T12:40:52.463Z,48.61
2019-03-24T12:43:19.725Z,48.34
2019-03-24T12:45:44.473Z,48.60
2019-03-24T12:48:10.496Z,48.54
2019-03-24T12:50:36.469Z,48.40
2019-03-24T12:53:02.495Z,48.38
2019-03-24T12:55:28.508Z,48.34
2019-03-24T12:57:54.510Z,48.36
2019-03-24T13:00:20.510Z,48.30
2019-03-24T13:02:46.508Z,48.16
2019-03-24T13:05:12.506Z,48.24
2019-03-24T13:07:38.502Z,48.21
2019-03-24T13:10:04.499Z,48.17
2019-03-24T13:12:30.512Z,48.09
2019-03-24T13:14:56.514Z,48.15
2019-03-24T13:17:22.516Z,48.10
2019-03-24T13:19:48.548Z,48.01
2019-03-24T13:22:14.547Z,48.06
2019-03-24T13:24:40.543Z,48.08
2019-03-24T13:27:06.558Z,48.01
2019-03-24T13:29:32.577Z,47.93
2019-03-24T13:31:58.575Z,48.84
2019-03-24T13:34:24.571Z,48.54
2019-03-24T13:36:50.573Z,48.26
2019-03-24T13:39:16.642Z,48.54
2019-03-24T13:41:42.722Z,48.52
2019-03-24T13:44:08.780Z,48.36
2019-03-24T13:46:34.786Z,48.63
2019-03-24T13:49:00.801Z,48.70
2019-03-24T13:51:26.807Z,48.88
2019-03-24T13:53:52.799Z,49.01
2019-03-24T13:56:18.856Z,48.96
2019-03-24T13:58:44.854Z,49.04
2019-03-24T14:01:10.863Z,48.73
2019-03-24T14:03:36.859Z,48.92
2019-03-24T14:06:02.862Z,48.99
2019-03-24T14:08:28.859Z,48.98
2019-03-24T14:10:54.861Z,49.06
2019-03-24T14:13:20.858Z,49.09
2019-03-24T14:15:46.883Z,49.02
2019-03-24T14:18:12.900Z,49.05
2019-03-24T14:20:43.795Z,48.83
2019-03-24T14:23:04.905Z,48.72
2019-03-24T14:25:31.095Z,49.04
2019-03-24T14:27:57.091Z,48.82
2019-03-24T14:30:23.114Z,49.01
2019-03-24T14:32:49.114Z,49.02
2019-03-24T14:35:15.139Z,48.89
2019-03-24T14:37:41.151Z,48.57
2019-03-24T14:40:07.180Z,48.57
2019-03-24T14:42:33.179Z,48.47
2019-03-24T14:44:59.416Z,48.81
2019-03-24T14:47:25.455Z,48.50
2019-03-24T14:49:51.451Z,48.49
2019-03-24T14:52:18.147Z,48.49
2019-03-24T14:54:44.153Z,48.65
2019-03-24T14:57:10.710Z,48.52
2019-03-24T14:59:36.767Z,48.53
2019-03-24T15:02:02.765Z,48.49
2019-03-24T15:04:28.797Z,48.91
2019-03-24T15:06:54.847Z,48.65
2019-03-24T15:09:20.848Z,48.83
2019-03-24T15:11:46.887Z,48.77
2019-03-24T15:14:12.901Z,49.32
2019-03-24T15:16:41.981Z,49.21
2019-03-24T15:19:14.618Z,48.87
2019-03-24T15:21:40.638Z,49.15
2019-03-24T15:24:06.636Z,49.09
2019-03-24T15:26:32.665Z,48.95
2019-03-24T15:28:59.075Z,48.88
2019-03-24T15:31:25.079Z,49.03
2019-03-24T15:33:51.087Z,48.86
2019-03-24T15:36:17.094Z,48.79
2019-03-24T15:38:43.103Z,48.79
2019-03-24T15:41:09.102Z,48.92
2019-03-24T15:43:35.166Z,48.39
2019-03-24T15:46:01.169Z,48.34
2019-03-24T15:48:27.171Z,48.41
2019-03-24T15:50:53.198Z,48.37
2019-03-24T15:53:19.199Z,48.40
2019-03-24T15:55:45.202Z,48.38
2019-03-24T15:58:11.202Z,48.39
2019-03-24T16:00:37.215Z,48.41
2019-03-24T16:03:03.230Z,48.27
2019-03-24T16:05:29.265Z,48.30
2019-03-24T16:07:55.311Z,48.29
2019-03-24T16:10:21.318Z,48.25
2019-03-24T16:12:47.475Z,48.32
2019-03-24T16:15:13.462Z,48.32
2019-03-24T16:17:39.467Z,48.34
2019-03-24T16:20:05.460Z,48.39
2019-03-24T16:22:31.463Z,48.30
2019-03-24T16:24:57.459Z,48.24
2019-03-24T16:27:23.498Z,48.05
2019-03-24T16:29:49.496Z,47.86
2019-03-24T16:32:15.510Z,46.62
2019-03-24T16:34:41.512Z,46.22
2019-03-24T16:37:07.719Z,46.44
2019-03-24T16:39:33.724Z,46.36
2019-03-24T16:41:59.718Z,46.09
2019-03-24T16:44:25.722Z,46.05
2019-03-24T16:46:51.727Z,45.76
2019-03-24T16:49:17.763Z,45.33
2019-03-24T16:51:43.765Z,44.89
2019-03-24T16:54:09.755Z,45.29
2019-03-24T16:56:35.759Z,44.51
2019-03-24T16:59:01.775Z,44.93
2019-03-24T17:01:27.843Z,45.64
2019-03-24T17:03:53.839Z,45.38
2019-03-24T17:06:19.845Z,45.50
2019-03-24T17:08:45.836Z,45.03
2019-03-24T17:11:11.833Z,45.52
2019-03-24T17:13:37.846Z,45.15
2019-03-24T17:16:03.841Z,45.75
2019-03-24T17:18:29.839Z,45.65
2019-03-24T17:20:55.835Z,45.85
2019-03-24T17:23:21.880Z,46.04
2019-03-24T17:25:47.882Z,46.09
2019-03-24T17:28:13.874Z,45.79
2019-03-24T17:30:39.883Z,46.26
2019-03-24T17:33:05.877Z,46.33
2019-03-24T17:35:31.900Z,46.15
2019-03-24T17:37:57.932Z,46.30
2019-03-24T17:40:23.904Z,46.41
2019-03-24T17:42:49.899Z,46.41
2019-03-24T17:45:15.930Z,46.08
2019-03-24T17:47:41.928Z,45.71
2019-03-24T17:50:07.926Z,46.33
2019-03-24T17:52:33.927Z,46.33
2019-03-24T17:54:59.925Z,46.30
2019-03-24T17:57:25.944Z,46.22
2019-03-24T17:59:51.943Z,46.44
2019-03-24T18:02:17.951Z,46.96
2019-03-24T18:04:43.953Z,46.94
2019-03-24T18:07:09.963Z,47.51
2019-03-24T18:09:35.961Z,47.68
2019-03-24T18:12:01.961Z,47.36
2019-03-24T18:14:27.964Z,47.28
2019-03-24T18:16:53.960Z,47.38
2019-03-24T18:19:20.127Z,47.39
2019-03-24T18:21:46.180Z,47.40
2019-03-24T18:24:12.186Z,47.69
2019-03-24T18:26:38.179Z,47.60
2019-03-24T18:29:04.175Z,47.77
2019-03-24T18:31:30.206Z,47.99
2019-03-24T18:33:56.199Z,47.82
2019-03-24T18:36:22.244Z,48.11
2019-03-24T18:38:48.238Z,48.04
2019-03-24T18:41:14.254Z,48.17
2019-03-24T18:43:40.262Z,48.08
2019-03-24T18:46:06.279Z,48.21
2019-03-24T18:48:32.307Z,48.27
2019-03-24T18:50:58.322Z,48.24
2019-03-24T18:53:24.376Z,47.85
2019-03-24T18:55:50.375Z,48.02
2019-03-24T18:58:16.371Z,47.89
2019-03-24T19:00:42.371Z,47.89
2019-03-24T19:03:08.402Z,47.90
2019-03-24T19:05:35.258Z,47.77
2019-03-24T19:08:00.396Z,47.83
2019-03-24T19:10:26.401Z,47.75
2019-03-24T19:12:52.398Z,47.73
2019-03-24T19:15:18.394Z,47.95
2019-03-24T19:17:44.395Z,48.03
2019-03-24T19:20:10.399Z,47.83
2019-03-24T19:22:38.067Z,47.91
2019-03-24T19:25:04.107Z,48.02
2019-03-24T19:27:31.330Z,48.03
2019-03-24T19:30:04.015Z,48.02
2019-03-24T19:32:30.601Z,47.90
2019-03-24T19:34:56.604Z,48.00
2019-03-24T19:37:22.606Z,47.76
2019-03-24T19:39:48.664Z,47.61
2019-03-24T19:42:14.662Z,47.56
2019-03-24T19:44:42.249Z,47.40
2019-03-24T19:47:08.257Z,47.47
2019-03-24T19:49:34.255Z,47.46
2019-03-24T19:52:00.519Z,47.57
2019-03-24T19:54:26.766Z,47.64
2019-03-24T19:56:53.573Z,47.78
2019-03-24T19:59:20.810Z,47.74
2019-03-24T20:01:47.967Z,47.94
2019-03-24T20:04:13.962Z,48.00
2019-03-24T20:06:39.966Z,47.98
2019-03-24T20:09:06.239Z,47.98
2019-03-24T20:11:32.230Z,48.11
2019-03-24T20:13:58.328Z,48.20
2019-03-24T20:16:24.325Z,48.27
2019-03-24T20:18:50.327Z,48.20
2019-03-24T20:21:16.331Z,48.24
2019-03-24T20:23:42.486Z,48.43
2019-03-24T20:26:09.457Z,48.05
2019-03-24T20:28:37.588Z,48.09
2019-03-24T20:31:04.262Z,48.01
2019-03-24T20:33:32.607Z,47.93
2019-03-24T20:35:57.912Z,47.87
2019-03-24T20:38:23.914Z,47.92
2019-03-24T20:40:49.964Z,47.89
2019-03-24T20:43:15.958Z,47.82
2019-03-24T20:45:41.951Z,47.88
2019-03-24T20:48:09.305Z,48.01
2019-03-24T20:50:36.757Z,47.92
2019-03-24T20:53:08.733Z,47.84
2019-03-24T20:55:29.107Z,47.84
2019-03-24T20:57:55.128Z,47.88
2019-03-24T21:00:21.106Z,47.88
2019-03-24T21:02:47.105Z,47.79
2019-03-24T21:05:13.344Z,47.81
2019-03-24T21:07:39.338Z,47.86
2019-03-24T21:10:05.359Z,47.83
2019-03-24T21:12:31.358Z,47.91
2019-03-24T21:14:57.358Z,48.00
2019-03-24T21:17:23.360Z,47.99
2019-03-24T21:19:49.416Z,48.01
2019-03-24T21:22:15.415Z,47.89
2019-03-24T21:24:41.406Z,47.98
2019-03-24T21:27:07.438Z,47.87
2019-03-24T21:29:33.471Z,47.85
2019-03-24T21:31:59.463Z,47.83
2019-03-24T21:34:25.467Z,47.85
2019-03-24T21:36:51.470Z,47.87
2019-03-24T21:39:17.464Z,47.79
2019-03-24T21:41:43.469Z,47.65
2019-03-24T21:44:09.463Z,47.60
2019-03-24T21:46:35.491Z,47.55
2019-03-24T21:49:01.488Z,47.51
2019-03-24T21:51:27.482Z,47.48
2019-03-24T21:53:53.483Z,47.42
2019-03-24T21:56:19.495Z,47.45
2019-03-24T21:58:45.500Z,47.39
2019-03-24T22:01:11.498Z,47.35
2019-03-24T22:03:37.499Z,47.27
2019-03-24T22:06:03.489Z,47.33
2019-03-24T22:08:29.520Z,47.29
2019-03-24T22:10:55.515Z,47.24
2019-03-24T22:13:21.512Z,47.21
2019-03-24T22:15:47.520Z,47.10
2019-03-24T22:18:13.519Z,47.20
2019-03-24T22:20:48.394Z,47.03
2019-03-24T22:23:05.514Z,47.15
2019-03-24T22:25:31.524Z,46.80
2019-03-24T22:27:57.519Z,47.12
2019-03-24T22:30:23.524Z,47.13
2019-03-24T22:32:49.519Z,47.10
2019-03-24T22:35:15.591Z,47.04
2019-03-24T22:37:41.556Z,47.06
2019-03-24T22:40:07.550Z,47.02
2019-03-24T22:42:33.551Z,47.07
2019-03-24T22:44:59.546Z,47.05
2019-03-24T22:47:25.580Z,47.00
2019-03-24T22:49:51.586Z,46.91
2019-03-24T22:52:17.591Z,46.99
2019-03-24T22:54:43.588Z,46.96
2019-03-24T22:57:09.623Z,46.92
2019-03-24T22:59:35.619Z,46.96
2019-03-24T23:02:01.622Z,46.85
2019-03-24T23:04:27.620Z,46.82
2019-03-24T23:06:53.614Z,46.82
2019-03-24T23:09:19.615Z,46.91
2019-03-24T23:11:45.611Z,46.84
2019-03-24T23:14:11.612Z,46.87
2019-03-24T23:16:37.601Z,46.91
2019-03-24T23:19:03.598Z,46.58
2019-03-24T23:21:29.596Z,46.81
2019-03-24T23:23:55.595Z,46.78
2019-03-24T23:26:21.598Z,46.78
2019-03-24T23:28:47.597Z,46.78
2019-03-24T23:31:13.599Z,46.76
2019-03-24T23:33:39.596Z,46.68
2019-03-24T23:36:05.594Z,46.74
2019-03-24T23:38:31.598Z,46.72
2019-03-24T23:40:57.685Z,46.73
2019-03-24T23:43:23.681Z,46.72
2019-03-24T23:45:49.680Z,46.65
2019-03-24T23:48:15.687Z,46.62
2019-03-24T23:50:41.686Z,46.61
2019-03-24T23:53:07.687Z,46.64
2019-03-24T23:55:33.679Z,46.66
2019-03-24T23:57:59.680Z,46.61
